sensor_id;sensor_type;location;lat;lon;timestamp;pressure;altitude;pressure_sealevel;temperature;humidity
54872;BME280;43914;57.680;11.982;2022-12-07T00:01:24;100146.63;;;-2.35;100.00
54872;BME280;43914;57.680;11.982;2022-12-07T00:03:56;100141.38;;;-2.35;100.00
54872;BME280;43914;57.680;11.982;2022-12-07T00:06:25;100141.27;;;-2.33;100.00
54872;BME280;43914;57.680;11.982;2022-12-07T00:08:52;100144.76;;;-2.33;100.00
54872;BME280;43914;57.680;11.982;2022-12-07T00:11:21;100139.86;;;-2.32;100.00
54872;BME280;43914;57.680;11.982;2022-12-07T00:13:53;100136.86;;;-2.33;100.00
54872;BME280;43914;57.680;11.982;2022-12-07T00:16:22;100138.30;;;-2.28;100.00
54872;BME280;43914;57.680;11.982;2022-12-07T00:18:51;100134.81;;;-2.29;100.00
54872;BME280;43914;57.680;11.982;2022-12-07T00:21:19;100130.77;;;-2.27;100.00
54872;BME280;43914;57.680;11.982;2022-12-07T00:23:55;100131.59;;;-2.27;100.00
54872;BME280;43914;57.680;11.982;2022-12-07T00:26:27;100124.55;;;-2.26;100.00
54872;BME280;43914;57.680;11.982;2022-12-07T00:28:57;100121.67;;;-2.23;100.00
54872;BME280;43914;57.680;11.982;2022-12-07T00:31:29;100128.37;;;-2.19;100.00
54872;BME280;43914;57.680;11.982;2022-12-07T00:33:57;100129.59;;;-2.18;100.00
54872;BME280;43914;57.680;11.982;2022-12-07T00:36:24;100124.20;;;-2.16;100.00
54872;BME280;43914;57.680;11.982;2022-12-07T00:38:51;100119.29;;;-2.15;100.00
54872;BME280;43914;57.680;11.982;2022-12-07T00:41:20;100116.91;;;-2.12;100.00
54872;BME280;43914;57.680;11.982;2022-12-07T00:43:49;100121.94;;;-2.09;100.00
54872;BME280;43914;57.680;11.982;2022-12-07T00:46:16;100114.05;;;-2.09;100.00
54872;BME280;43914;57.680;11.982;2022-12-07T00:48:43;100123.62;;;-2.08;100.00
54872;BME280;43914;57.680;11.982;2022-12-07T00:51:14;100123.98;;;-2.07;100.00
54872;BME280;43914;57.680;11.982;2022-12-07T00:53:40;100118.22;;;-2.07;100.00
54872;BME280;43914;57.680;11.982;2022-12-07T00:56:08;100105.55;;;-2.07;100.00
54872;BME280;43914;57.680;11.982;2022-12-07T00:58:35;100106.73;;;-2.06;100.00
54872;BME280;43914;57.680;11.982;2022-12-07T01:01:02;100105.77;;;-2.05;100.00
54872;BME280;43914;57.680;11.982;2022-12-07T01:03:30;100104.45;;;-2.05;100.00
54872;BME280;43914;57.680;11.982;2022-12-07T01:05:56;100101.82;;;-2.05;100.00
54872;BME280;43914;57.680;11.982;2022-12-07T01:08:24;100098.83;;;-2.06;100.00
54872;BME280;43914;57.680;11.982;2022-12-07T01:11:03;100097.39;;;-2.10;100.00
54872;BME280;43914;57.680;11.982;2022-12-07T01:13:31;100089.13;;;-2.11;100.00
54872;BME280;43914;57.680;11.982;2022-12-07T01:15:59;100092.37;;;-2.13;100.00
54872;BME280;43914;57.680;11.982;2022-12-07T01:18:28;100087.82;;;-2.11;100.00
54872;BME280;43914;57.680;11.982;2022-12-07T01:21:03;100082.91;;;-2.10;100.00
54872;BME280;43914;57.680;11.982;2022-12-07T01:23:34;100081.59;;;-2.10;100.00
54872;BME280;43914;57.680;11.982;2022-12-07T01:26:08;100070.24;;;-2.10;100.00
54872;BME280;43914;57.680;11.982;2022-12-07T01:28:32;100079.32;;;-2.09;100.00
54872;BME280;43914;57.680;11.982;2022-12-07T01:33:31;100082.43;;;-2.04;100.00
54872;BME280;43914;57.680;11.982;2022-12-07T01:36:07;100078.87;;;-2.02;100.00
54872;BME280;43914;57.680;11.982;2022-12-07T01:38:35;100075.73;;;-2.02;100.00
54872;BME280;43914;57.680;11.982;2022-12-07T01:41:02;100065.81;;;-2.04;100.00
54872;BME280;43914;57.680;11.982;2022-12-07T01:43:30;100069.76;;;-2.04;100.00
54872;BME280;43914;57.680;11.982;2022-12-07T01:45:57;100067.13;;;-2.04;100.00
54872;BME280;43914;57.680;11.982;2022-12-07T01:48:38;100065.21;;;-2.02;100.00
54872;BME280;43914;57.680;11.982;2022-12-07T01:51:08;100057.91;;;-2.04;100.00
54872;BME280;43914;57.680;11.982;2022-12-07T01:53:38;100053.00;;;-2.03;100.00
54872;BME280;43914;57.680;11.982;2022-12-07T01:56:08;100056.34;;;-2.01;100.00
54872;BME280;43914;57.680;11.982;2022-12-07T01:58:37;100052.64;;;-2.04;100.00
54872;BME280;43914;57.680;11.982;2022-12-07T02:01:03;100058.73;;;-2.04;100.00
54872;BME280;43914;57.680;11.982;2022-12-07T02:03:40;100049.91;;;-2.02;100.00
54872;BME280;43914;57.680;11.982;2022-12-07T02:06:10;100051.08;;;-2.01;100.00
54872;BME280;43914;57.680;11.982;2022-12-07T02:08:39;100043.19;;;-2.01;100.00
54872;BME280;43914;57.680;11.982;2022-12-07T02:11:06;100052.30;;;-1.99;100.00
54872;BME280;43914;57.680;11.982;2022-12-07T02:13:35;100045.36;;;-2.00;100.00
54872;BME280;43914;57.680;11.982;2022-12-07T02:16:16;100044.50;;;-2.01;100.00
54872;BME280;43914;57.680;11.982;2022-12-07T02:30:19;100045.36;;;-2.00;100.00
54872;BME280;43914;57.680;11.982;2022-12-07T02:35:30;100023.19;;;-1.98;100.00
54872;BME280;43914;57.680;11.982;2022-12-07T02:40:41;100032.52;;;-1.94;100.00
54872;BME280;43914;57.680;11.982;2022-12-07T02:43:26;100023.20;;;-1.92;100.00
54872;BME280;43914;57.680;11.982;2022-12-07T02:45:57;100016.11;;;-1.92;100.00
54872;BME280;43914;57.680;11.982;2022-12-07T02:48:26;100014.44;;;-1.93;100.00
54872;BME280;43914;57.680;11.982;2022-12-07T02:50:53;100007.75;;;-1.91;100.00
54872;BME280;43914;57.680;11.982;2022-12-07T02:53:37;100008.47;;;-1.89;100.00
54872;BME280;43914;57.680;11.982;2022-12-07T03:07:39;100000.42;;;-1.82;100.00
54872;BME280;43914;57.680;11.982;2022-12-07T03:13:41;99994.45;;;-1.84;100.00
54872;BME280;43914;57.680;11.982;2022-12-07T03:16:14;99985.22;;;-1.84;100.00
54872;BME280;43914;57.680;11.982;2022-12-07T03:18:48;99990.98;;;-1.84;100.00
54872;BME280;43914;57.680;11.982;2022-12-07T03:21:25;99986.08;;;-1.83;100.00
54872;BME280;43914;57.680;11.982;2022-12-07T03:23:56;99990.03;;;-1.83;100.00
54872;BME280;43914;57.680;11.982;2022-12-07T03:26:33;99984.27;;;-1.83;100.00
54872;BME280;43914;57.680;11.982;2022-12-07T03:29:04;99982.34;;;-1.81;100.00
54872;BME280;43914;57.680;11.982;2022-12-07T03:31:55;99980.20;;;-1.81;100.00
54872;BME280;43914;57.680;11.982;2022-12-07T03:34:26;99975.90;;;-1.82;100.00
54872;BME280;43914;57.680;11.982;2022-12-07T03:36:57;99978.39;;;-1.81;100.00
54872;BME280;43914;57.680;11.982;2022-12-07T03:39:39;99976.36;;;-1.83;100.00
54872;BME280;43914;57.680;11.982;2022-12-07T03:42:20;99978.64;;;-1.84;100.00
54872;BME280;43914;57.680;11.982;2022-12-07T03:44:47;99980.09;;;-1.85;100.00
54872;BME280;43914;57.680;11.982;2022-12-07T03:50:31;99978.75;;;-1.80;100.00
54872;BME280;43914;57.680;11.982;2022-12-07T03:53:02;99976.22;;;-1.76;100.00
54872;BME280;43914;57.680;11.982;2022-12-07T03:55:32;99975.61;;;-1.74;100.00
54872;BME280;43914;57.680;11.982;2022-12-07T03:58:12;99975.04;;;-1.71;100.00
54872;BME280;43914;57.680;11.982;2022-12-07T04:00:42;99974.08;;;-1.70;100.00
54872;BME280;43914;57.680;11.982;2022-12-07T04:03:09;99971.66;;;-1.68;100.00
54872;BME280;43914;57.680;11.982;2022-12-07T04:05:35;99964.36;;;-1.70;100.00
54872;BME280;43914;57.680;11.982;2022-12-07T04:08:02;99968.81;;;-1.70;100.00
54872;BME280;43914;57.680;11.982;2022-12-07T04:10:28;99964.86;;;-1.70;100.00
54872;BME280;43914;57.680;11.982;2022-12-07T04:12:55;99974.66;;;-1.72;100.00
54872;BME280;43914;57.680;11.982;2022-12-07T04:15:21;99971.91;;;-1.71;100.00
54872;BME280;43914;57.680;11.982;2022-12-07T04:17:47;99961.48;;;-1.72;100.00
54872;BME280;43914;57.680;11.982;2022-12-07T04:20:14;99962.58;;;-1.75;100.00
54872;BME280;43914;57.680;11.982;2022-12-07T04:22:40;99964.11;;;-1.72;100.00
54872;BME280;43914;57.680;11.982;2022-12-07T04:25:06;99965.56;;;-1.68;100.00
54872;BME280;43914;57.680;11.982;2022-12-07T04:27:32;99961.47;;;-1.67;100.00
54872;BME280;43914;57.680;11.982;2022-12-07T04:29:58;99958.23;;;-1.65;100.00
54872;BME280;43914;57.680;11.982;2022-12-07T04:32:24;99957.88;;;-1.60;100.00
54872;BME280;43914;57.680;11.982;2022-12-07T04:34:50;99952.60;;;-1.60;100.00
54872;BME280;43914;57.680;11.982;2022-12-07T04:37:16;99958.22;;;-1.59;100.00
54872;BME280;43914;57.680;11.982;2022-12-07T04:39:43;99964.20;;;-1.57;100.00
54872;BME280;43914;57.680;11.982;2022-12-07T04:42:11;99961.92;;;-1.56;100.00
54872;BME280;43914;57.680;11.982;2022-12-07T04:44:38;99956.66;;;-1.56;100.00
54872;BME280;43914;57.680;11.982;2022-12-07T04:47:05;99960.23;;;-1.51;100.00
54872;BME280;43914;57.680;11.982;2022-12-07T04:49:31;99965.02;;;-1.51;100.00
54872;BME280;43914;57.680;11.982;2022-12-07T04:51:57;99963.34;;;-1.52;100.00
54872;BME280;43914;57.680;11.982;2022-12-07T04:54:23;99961.67;;;-1.53;100.00
54872;BME280;43914;57.680;11.982;2022-12-07T04:56:49;99960.35;;;-1.53;100.00
54872;BME280;43914;57.680;11.982;2022-12-07T04:59:16;99962.37;;;-1.51;100.00
54872;BME280;43914;57.680;11.982;2022-12-07T05:01:43;99959.28;;;-1.50;100.00
54872;BME280;43914;57.680;11.982;2022-12-07T05:04:09;99960.23;;;-1.51;100.00
54872;BME280;43914;57.680;11.982;2022-12-07T05:06:36;99955.08;;;-1.53;100.00
54872;BME280;43914;57.680;11.982;2022-12-07T05:09:03;99948.23;;;-1.50;100.00
54872;BME280;43914;57.680;11.982;2022-12-07T05:11:28;99954.13;;;-1.52;100.00
54872;BME280;43914;57.680;11.982;2022-12-07T05:16:43;99944.78;;;-1.50;100.00
54872;BME280;43914;57.680;11.982;2022-12-07T05:19:11;99946.22;;;-1.52;100.00
54872;BME280;43914;57.680;11.982;2022-12-07T05:21:38;99947.17;;;-1.53;100.00
54872;BME280;43914;57.680;11.982;2022-12-07T05:24:07;99943.72;;;-1.53;100.00
54872;BME280;43914;57.680;11.982;2022-12-07T05:26:34;99945.86;;;-1.53;100.00
54872;BME280;43914;57.680;11.982;2022-12-07T05:29:01;99942.41;;;-1.53;100.00
54872;BME280;43914;57.680;11.982;2022-12-07T05:31:28;99941.80;;;-1.51;100.00
54872;BME280;43914;57.680;11.982;2022-12-07T05:33:54;99941.66;;;-1.50;100.00
54872;BME280;43914;57.680;11.982;2022-12-07T05:36:20;99941.75;;;-1.46;100.00
54872;BME280;43914;57.680;11.982;2022-12-07T05:38:46;99942.60;;;-1.45;100.00
54872;BME280;43914;57.680;11.982;2022-12-07T05:41:16;99936.22;;;-1.42;100.00
54872;BME280;43914;57.680;11.982;2022-12-07T05:44:03;99936.47;;;-1.40;100.00
54872;BME280;43914;57.680;11.982;2022-12-07T05:46:30;99943.30;;;-1.37;100.00
54872;BME280;43914;57.680;11.982;2022-12-07T05:48:55;99935.85;;;-1.38;100.00
54872;BME280;43914;57.680;11.982;2022-12-07T05:51:21;99935.39;;;-1.37;100.00
54872;BME280;43914;57.680;11.982;2022-12-07T05:53:47;99935.59;;;-1.35;100.00
54872;BME280;43914;57.680;11.982;2022-12-07T05:56:14;99935.73;;;-1.36;100.00
54872;BME280;43914;57.680;11.982;2022-12-07T05:58:40;99934.89;;;-1.37;100.00
54872;BME280;43914;57.680;11.982;2022-12-07T06:01:24;99933.92;;;-1.36;100.00
54872;BME280;43914;57.680;11.982;2022-12-07T06:03:51;99936.09;;;-1.35;100.00
54872;BME280;43914;57.680;11.982;2022-12-07T06:06:16;99935.13;;;-1.34;100.00
54872;BME280;43914;57.680;11.982;2022-12-07T06:08:42;99933.20;;;-1.32;100.00
54872;BME280;43914;57.680;11.982;2022-12-07T06:11:08;99933.06;;;-1.31;100.00
54872;BME280;43914;57.680;11.982;2022-12-07T06:13:53;99928.98;;;-1.29;100.00
54872;BME280;43914;57.680;11.982;2022-12-07T06:16:19;99941.91;;;-1.26;100.00
54872;BME280;43914;57.680;11.982;2022-12-07T06:18:45;99936.90;;;-1.29;100.00
54872;BME280;43914;57.680;11.982;2022-12-07T06:21:11;99938.57;;;-1.28;100.00
54872;BME280;43914;57.680;11.982;2022-12-07T06:23:37;99940.24;;;-1.27;100.00
54872;BME280;43914;57.680;11.982;2022-12-07T06:26:03;99940.70;;;-1.27;100.00
54872;BME280;43914;57.680;11.982;2022-12-07T06:28:29;99942.27;;;-1.25;100.00
54872;BME280;43914;57.680;11.982;2022-12-07T06:31:00;99934.97;;;-1.27;100.00
54872;BME280;43914;57.680;11.982;2022-12-07T06:33:27;99935.79;;;-1.26;100.00
54872;BME280;43914;57.680;11.982;2022-12-07T06:35:54;99852.81;;;-1.80;100.00
54872;BME280;43914;57.680;11.982;2022-12-07T06:38:20;99937.72;;;-1.28;100.00
54872;BME280;43914;57.680;11.982;2022-12-07T06:40:47;99939.28;;;-1.26;100.00
54872;BME280;43914;57.680;11.982;2022-12-07T06:43:13;99938.78;;;-1.25;100.00
54872;BME280;43914;57.680;11.982;2022-12-07T06:45:40;99939.63;;;-1.25;100.00
54872;BME280;43914;57.680;11.982;2022-12-07T06:48:06;99937.11;;;-1.26;100.00
54872;BME280;43914;57.680;11.982;2022-12-07T06:50:33;99940.70;;;-1.27;100.00
54872;BME280;43914;57.680;11.982;2022-12-07T06:52:58;99940.70;;;-1.27;100.00
54872;BME280;43914;57.680;11.982;2022-12-07T06:55:24;99940.75;;;-1.33;100.00
54872;BME280;43914;57.680;11.982;2022-12-07T06:57:50;99942.43;;;-1.32;100.00
54872;BME280;43914;57.680;11.982;2022-12-07T07:00:17;99943.04;;;-1.34;100.00
54872;BME280;43914;57.680;11.982;2022-12-07T07:02:43;99943.39;;;-1.33;100.00
54872;BME280;43914;57.680;11.982;2022-12-07T07:05:10;99947.95;;;-1.35;100.00
54872;BME280;43914;57.680;11.982;2022-12-07T07:07:35;99945.58;;;-1.38;100.00
54872;BME280;43914;57.680;11.982;2022-12-07T07:10:01;99941.73;;;-1.40;100.00
54872;BME280;43914;57.680;11.982;2022-12-07T07:12:28;99941.84;;;-1.41;100.00
54872;BME280;43914;57.680;11.982;2022-12-07T07:14:54;99946.41;;;-1.43;100.00
54872;BME280;43914;57.680;11.982;2022-12-07T07:17:20;99942.34;;;-1.42;100.00
54872;BME280;43914;57.680;11.982;2022-12-07T07:19:46;99949.05;;;-1.43;100.00
54872;BME280;43914;57.680;11.982;2022-12-07T07:22:12;99946.06;;;-1.45;100.00
54872;BME280;43914;57.680;11.982;2022-12-07T07:24:38;99942.72;;;-1.47;100.00
54872;BME280;43914;57.680;11.982;2022-12-07T07:27:04;99951.23;;;-1.49;100.00
54872;BME280;43914;57.680;11.982;2022-12-07T07:29:29;99952.69;;;-1.50;100.00
54872;BME280;43914;57.680;11.982;2022-12-07T07:31:55;99947.06;;;-1.51;100.00
54872;BME280;43914;57.680;11.982;2022-12-07T07:34:21;99951.73;;;-1.49;100.00
54872;BME280;43914;57.680;11.982;2022-12-07T07:36:47;99949.55;;;-1.50;100.00
54872;BME280;43914;57.680;11.982;2022-12-07T07:39:13;99954.01;;;-1.50;100.00
54872;BME280;43914;57.680;11.982;2022-12-07T07:41:39;99950.52;;;-1.51;100.00
54872;BME280;43914;57.680;11.982;2022-12-07T07:44:05;99956.64;;;-1.50;100.00
54872;BME280;43914;57.680;11.982;2022-12-07T07:46:31;99955.79;;;-1.51;100.00
54872;BME280;43914;57.680;11.982;2022-12-07T07:48:58;99962.27;;;-1.49;100.00
54872;BME280;43914;57.680;11.982;2022-12-07T07:51:24;99958.53;;;-1.47;100.00
54872;BME280;43914;57.680;11.982;2022-12-07T07:53:50;99961.05;;;-1.45;100.00
54872;BME280;43914;57.680;11.982;2022-12-07T07:56:20;99959.23;;;-1.45;100.00
54872;BME280;43914;57.680;11.982;2022-12-07T07:58:46;99966.89;;;-1.41;100.00
54872;BME280;43914;57.680;11.982;2022-12-07T08:01:11;99967.38;;;-1.36;100.00
54872;BME280;43914;57.680;11.982;2022-12-07T08:03:38;99970.36;;;-1.35;100.00
54872;BME280;43914;57.680;11.982;2022-12-07T08:06:05;99971.33;;;-1.36;100.00
54872;BME280;43914;57.680;11.982;2022-12-07T08:08:31;99970.62;;;-1.38;100.00
54872;BME280;43914;57.680;11.982;2022-12-07T08:10:57;99976.11;;;-1.41;100.00
54872;BME280;43914;57.680;11.982;2022-12-07T08:13:25;99969.31;;;-1.44;100.00
54872;BME280;43914;57.680;11.982;2022-12-07T08:15:52;99962.02;;;-1.46;100.00
54872;BME280;43914;57.680;11.982;2022-12-07T08:18:18;99972.30;;;-1.43;100.00
54872;BME280;43914;57.680;11.982;2022-12-07T08:20:46;99969.66;;;-1.43;100.00
54872;BME280;43914;57.680;11.982;2022-12-07T08:23:12;99961.52;;;-1.46;100.00
54872;BME280;43914;57.680;11.982;2022-12-07T08:25:38;99957.92;;;-1.45;100.00
54872;BME280;43914;57.680;11.982;2022-12-07T08:28:05;99962.84;;;-1.46;100.00
54872;BME280;43914;57.680;11.982;2022-12-07T08:30:32;99961.05;;;-1.45;100.00
54872;BME280;43914;57.680;11.982;2022-12-07T08:32:59;99957.80;;;-1.43;100.00
54872;BME280;43914;57.680;11.982;2022-12-07T08:35:25;99961.77;;;-1.43;100.00
54872;BME280;43914;57.680;11.982;2022-12-07T08:37:51;99958.62;;;-1.42;100.00
54872;BME280;43914;57.680;11.982;2022-12-07T08:40:17;99955.87;;;-1.41;100.00
54872;BME280;43914;57.680;11.982;2022-12-07T08:42:50;99958.15;;;-1.36;100.00
54872;BME280;43914;57.680;11.982;2022-12-07T08:45:18;99957.19;;;-1.35;100.00
54872;BME280;43914;57.680;11.982;2022-12-07T08:47:57;99959.82;;;-1.35;100.00
54872;BME280;43914;57.680;11.982;2022-12-07T08:50:25;99960.43;;;-1.37;100.00
54872;BME280;43914;57.680;11.982;2022-12-07T08:52:53;99962.56;;;-1.37;100.00
54872;BME280;43914;57.680;11.982;2022-12-07T08:55:21;99974.92;;;-1.37;100.00
54872;BME280;43914;57.680;11.982;2022-12-07T08:57:47;99968.70;;;-1.42;100.00
54872;BME280;43914;57.680;11.982;2022-12-07T09:00:14;99974.12;;;-1.49;100.00
54872;BME280;43914;57.680;11.982;2022-12-07T09:02:44;99974.49;;;-1.54;100.00
54872;BME280;43914;57.680;11.982;2022-12-07T09:05:11;99972.58;;;-1.57;100.00
54872;BME280;43914;57.680;11.982;2022-12-07T09:07:38;99983.72;;;-1.60;100.00
54872;BME280;43914;57.680;11.982;2022-12-07T09:10:05;99982.91;;;-1.60;100.00
54872;BME280;43914;57.680;11.982;2022-12-07T09:12:32;99974.28;;;-1.62;100.00
54872;BME280;43914;57.680;11.982;2022-12-07T09:14:58;99976.31;;;-1.66;100.00
54872;BME280;43914;57.680;11.982;2022-12-07T09:17:26;99977.17;;;-1.71;100.00
54872;BME280;43914;57.680;11.982;2022-12-07T09:19:52;99973.13;;;-1.75;100.00
54872;BME280;43914;57.680;11.982;2022-12-07T09:22:18;99976.72;;;-1.76;100.00
54872;BME280;43914;57.680;11.982;2022-12-07T09:24:44;99971.80;;;-1.81;100.00
54872;BME280;43914;57.680;11.982;2022-12-07T09:27:11;99969.53;;;-1.80;100.00
54872;BME280;43914;57.680;11.982;2022-12-07T09:29:37;99968.56;;;-1.79;100.00
54872;BME280;43914;57.680;11.982;2022-12-07T09:32:04;99964.16;;;-1.78;100.00
54872;BME280;43914;57.680;11.982;2022-12-07T09:34:31;99968.92;;;-1.78;100.00
54872;BME280;43914;57.680;11.982;2022-12-07T09:36:58;99965.94;;;-1.79;100.00
54872;BME280;43914;57.680;11.982;2022-12-07T09:39:26;99968.21;;;-1.80;100.00
54872;BME280;43914;57.680;11.982;2022-12-07T09:41:52;99962.94;;;-1.80;100.00
54872;BME280;43914;57.680;11.982;2022-12-07T09:44:24;99970.23;;;-1.78;100.00
54872;BME280;43914;57.680;11.982;2022-12-07T09:46:52;99963.30;;;-1.79;100.00
54872;BME280;43914;57.680;11.982;2022-12-07T09:49:23;99966.18;;;-1.76;100.00
54872;BME280;43914;57.680;11.982;2022-12-07T09:52:03;99968.67;;;-1.75;100.00
54872;BME280;43914;57.680;11.982;2022-12-07T09:54:40;99962.09;;;-1.75;100.00
54872;BME280;43914;57.680;11.982;2022-12-07T09:57:10;99963.30;;;-1.73;100.00
54872;BME280;43914;57.680;11.982;2022-12-07T09:59:41;99962.33;;;-1.72;100.00
54872;BME280;43914;57.680;11.982;2022-12-07T10:05:06;99956.45;;;-1.70;100.00
54872;BME280;43914;57.680;11.982;2022-12-07T10:07:34;99957.66;;;-1.68;100.00
54872;BME280;43914;57.680;11.982;2022-12-07T10:10:03;99961.61;;;-1.68;100.00
54872;BME280;43914;57.680;11.982;2022-12-07T10:12:30;99962.58;;;-1.69;100.00
54872;BME280;43914;57.680;11.982;2022-12-07T10:15:03;99956.81;;;-1.69;100.00
54872;BME280;43914;57.680;11.982;2022-12-07T10:17:37;99962.58;;;-1.69;100.00
54872;BME280;43914;57.680;11.982;2022-12-07T10:20:15;99957.66;;;-1.68;100.00
54872;BME280;43914;57.680;11.982;2022-12-07T10:25:36;99958.98;;;-1.68;100.00
54872;BME280;43914;57.680;11.982;2022-12-07T10:28:15;99957.67;;;-1.74;100.00
54872;BME280;43914;57.680;11.982;2022-12-07T10:33:38;99963.19;;;-1.77;100.00
54872;BME280;43914;57.680;11.982;2022-12-07T10:39:15;99954.06;;;-1.67;100.00
54872;BME280;43914;57.680;11.982;2022-12-07T10:42:02;99953.56;;;-1.61;100.00
54872;BME280;43914;57.680;11.982;2022-12-07T10:44:32;99956.30;;;-1.57;100.00
54872;BME280;43914;57.680;11.982;2022-12-07T10:47:19;99958.83;;;-1.61;99.75
54872;BME280;43914;57.680;11.982;2022-12-07T11:04:29;99941.19;;;-1.49;98.68
54872;BME280;43914;57.680;11.982;2022-12-07T11:12:58;99930.96;;;-1.69;98.19
54872;BME280;43914;57.680;11.982;2022-12-07T11:15:28;99932.40;;;-1.77;98.25
54872;BME280;43914;57.680;11.982;2022-12-07T11:21:27;99935.54;;;-1.89;98.42
54872;BME280;43914;57.680;11.982;2022-12-07T11:38:17;99932.03;;;-2.33;98.42
54872;BME280;43914;57.680;11.982;2022-12-07T11:40:50;99928.08;;;-2.39;98.58
54872;BME280;43914;57.680;11.982;2022-12-07T11:43:31;99930.02;;;-2.47;98.46
54872;BME280;43914;57.680;11.982;2022-12-07T11:46:08;99934.92;;;-2.53;98.65
54872;BME280;43914;57.680;11.982;2022-12-07T11:48:42;99935.77;;;-2.58;97.95
54872;BME280;43914;57.680;11.982;2022-12-07T11:51:28;99932.86;;;-2.67;98.03
54872;BME280;43914;57.680;11.982;2022-12-07T11:54:00;99932.15;;;-2.69;98.76
54872;BME280;43914;57.680;11.982;2022-12-07T11:56:43;99929.40;;;-2.73;98.10
54872;BME280;43914;57.680;11.982;2022-12-07T11:59:17;99936.21;;;-2.76;98.27
54872;BME280;43914;57.680;11.982;2022-12-07T12:02:16;99935.98;;;-2.79;97.79
54872;BME280;43914;57.680;11.982;2022-12-07T12:04:59;99928.80;;;-2.82;97.71
54872;BME280;43914;57.680;11.982;2022-12-07T12:07:34;99933.80;;;-2.85;97.63
54872;BME280;43914;57.680;11.982;2022-12-07T12:10:05;99930.47;;;-2.93;97.23
54872;BME280;43914;57.680;11.982;2022-12-07T12:15:37;99926.72;;;-3.07;97.18
54872;BME280;43914;57.680;11.982;2022-12-07T12:18:20;99923.61;;;-3.12;97.61
54872;BME280;43914;57.680;11.982;2022-12-07T12:21:11;99926.48;;;-3.15;97.84
54872;BME280;43914;57.680;11.982;2022-12-07T12:23:46;99931.38;;;-3.16;98.20
54872;BME280;43914;57.680;11.982;2022-12-07T12:26:17;99933.74;;;-3.19;98.19
54872;BME280;43914;57.680;11.982;2022-12-07T12:29:03;99937.69;;;-3.19;98.25
54872;BME280;43914;57.680;11.982;2022-12-07T12:31:34;99939.59;;;-3.21;98.32
54872;BME280;43914;57.680;11.982;2022-12-07T12:37:00;99933.39;;;-3.26;98.11
54872;BME280;43914;57.680;11.982;2022-12-07T12:39:26;99928.69;;;-3.28;98.43
54872;BME280;43914;57.680;11.982;2022-12-07T12:41:55;99926.45;;;-3.27;98.66
54872;BME280;43914;57.680;11.982;2022-12-07T12:50:23;99928.12;;;-3.26;98.43
54872;BME280;43914;57.680;11.982;2022-12-07T12:58:35;99917.46;;;-3.30;98.63
54872;BME280;43914;57.680;11.982;2022-12-07T13:04:30;99914.61;;;-3.32;98.37
54872;BME280;43914;57.680;11.982;2022-12-07T13:06:55;99916.25;;;-3.37;98.12
54872;BME280;43914;57.680;11.982;2022-12-07T13:09:24;99911.46;;;-3.43;98.22
54872;BME280;43914;57.680;11.982;2022-12-07T13:12:05;99912.78;;;-3.43;98.51
54872;BME280;43914;57.680;11.982;2022-12-07T13:14:51;99914.45;;;-3.42;98.65
54872;BME280;43914;57.680;11.982;2022-12-07T13:17:13;99922.56;;;-3.45;98.39
54872;BME280;43914;57.680;11.982;2022-12-07T13:22:35;99914.32;;;-3.46;98.56
54872;BME280;43914;57.680;11.982;2022-12-07T13:25:19;99920.17;;;-3.49;98.32
54872;BME280;43914;57.680;11.982;2022-12-07T13:28:00;99921.48;;;-3.49;98.36
54872;BME280;43914;57.680;11.982;2022-12-07T13:30:30;99929.00;;;-3.50;98.50
54872;BME280;43914;57.680;11.982;2022-12-07T13:32:58;99920.27;;;-3.50;98.21
54872;BME280;43914;57.680;11.982;2022-12-07T13:38:05;99928.54;;;-3.43;99.11
54872;BME280;43914;57.680;11.982;2022-12-07T13:40:33;99925.22;;;-3.40;98.88
54872;BME280;43914;57.680;11.982;2022-12-07T13:43:04;99922.95;;;-3.39;98.72
54872;BME280;43914;57.680;11.982;2022-12-07T13:45:32;99924.13;;;-3.37;98.40
54872;BME280;43914;57.680;11.982;2022-12-07T13:48:34;99931.42;;;-3.35;98.47
54872;BME280;43914;57.680;11.982;2022-12-07T13:51:05;99925.58;;;-3.33;98.35
54872;BME280;43914;57.680;11.982;2022-12-07T13:53:31;99922.59;;;-3.40;97.85
54872;BME280;43914;57.680;11.982;2022-12-07T13:56:00;99922.33;;;-3.42;97.81
54872;BME280;43914;57.680;11.982;2022-12-07T13:58:30;99931.27;;;-3.45;97.68
54872;BME280;43914;57.680;11.982;2022-12-07T14:00:56;99915.84;;;-3.55;97.78
54872;BME280;43914;57.680;11.982;2022-12-07T14:03:26;99925.39;;;-3.54;97.89
54872;BME280;43914;57.680;11.982;2022-12-07T14:09:17;99920.23;;;-3.62;98.17
54872;BME280;43914;57.680;11.982;2022-12-07T14:11:41;99921.19;;;-3.63;98.45
54872;BME280;43914;57.680;11.982;2022-12-07T14:14:20;99922.96;;;-3.63;98.55
54872;BME280;43914;57.680;11.982;2022-12-07T14:17:17;99927.48;;;-3.65;98.39
54872;BME280;43914;57.680;11.982;2022-12-07T14:19:57;99916.75;;;-3.68;98.44
54872;BME280;43914;57.680;11.982;2022-12-07T14:22:40;99913.50;;;-3.71;98.38
54872;BME280;43914;57.680;11.982;2022-12-07T14:25:21;99913.14;;;-3.72;98.68
54872;BME280;43914;57.680;11.982;2022-12-07T14:27:55;99908.84;;;-3.73;98.62
54872;BME280;43914;57.680;11.982;2022-12-07T14:30:28;99908.48;;;-3.74;98.75
54872;BME280;43914;57.680;11.982;2022-12-07T14:33:00;99905.59;;;-3.77;98.70
54872;BME280;43914;57.680;11.982;2022-12-07T14:35:29;99917.89;;;-3.78;98.42
54872;BME280;43914;57.680;11.982;2022-12-07T14:37:56;99911.06;;;-3.80;98.60
54872;BME280;43914;57.680;11.982;2022-12-07T14:40:26;99916.32;;;-3.80;98.54
54872;BME280;43914;57.680;11.982;2022-12-07T14:43:02;99901.87;;;-3.86;98.48
54872;BME280;43914;57.680;11.982;2022-12-07T14:45:29;99903.19;;;-3.86;98.48
54872;BME280;43914;57.680;11.982;2022-12-07T14:47:55;99899.08;;;-3.90;98.60
54872;BME280;43914;57.680;11.982;2022-12-07T14:50:23;99897.77;;;-3.90;98.69
54872;BME280;43914;57.680;11.982;2022-12-07T14:52:54;99899.08;;;-3.90;98.84
54872;BME280;43914;57.680;11.982;2022-12-07T14:55:25;99898.72;;;-3.91;98.84